Terminal Aerodrome Forecast
Issued by NWS

Home | Current Version | Previous Version | Text Only | Print | Product List | Glossary On
Versions: 1 2 3 4 5 6 7 8 9 10 11
395
FTUS45 KABQ 230540
TAFFMN
TAF
KFMN 230540Z 2306/2406 08008KT P6SM SCT250
     FM231000 10011G17KT P6SM FEW250
     FM231800 14010KT P6SM FEW250
     FM232100 25013G23KT P6SM SCT250=

USA.gov is the U.S. government's official web portal to all federal, state and local government web resources and services.